sensor_id;sensor_type;location;lat;lon;timestamp;P1;durP1;ratioP1;P2;durP2;ratioP2
3573;SDS011;1801;51.050;6.246;2023-02-11T00:01:12;29.40;;;15.13;;
3573;SDS011;1801;51.050;6.246;2023-02-11T00:03:37;33.50;;;13.80;;
3573;SDS011;1801;51.050;6.246;2023-02-11T00:06:05;38.87;;;15.30;;
3573;SDS011;1801;51.050;6.246;2023-02-11T00:08:33;32.80;;;15.07;;
3573;SDS011;1801;51.050;6.246;2023-02-11T00:10:58;39.10;;;17.30;;
3573;SDS011;1801;51.050;6.246;2023-02-11T00:13:23;32.13;;;13.60;;
3573;SDS011;1801;51.050;6.246;2023-02-11T00:15:49;34.27;;;12.10;;
3573;SDS011;1801;51.050;6.246;2023-02-11T00:18:14;35.80;;;15.53;;
3573;SDS011;1801;51.050;6.246;2023-02-11T00:20:39;33.50;;;15.07;;
3573;SDS011;1801;51.050;6.246;2023-02-11T00:23:05;49.37;;;17.90;;
3573;SDS011;1801;51.050;6.246;2023-02-11T00:25:30;44.10;;;18.00;;
3573;SDS011;1801;51.050;6.246;2023-02-11T00:27:56;34.53;;;15.03;;
3573;SDS011;1801;51.050;6.246;2023-02-11T00:30:21;37.73;;;16.87;;
3573;SDS011;1801;51.050;6.246;2023-02-11T00:32:46;41.50;;;18.57;;
3573;SDS011;1801;51.050;6.246;2023-02-11T00:35:11;30.30;;;13.53;;
3573;SDS011;1801;51.050;6.246;2023-02-11T00:37:36;40.43;;;17.80;;
3573;SDS011;1801;51.050;6.246;2023-02-11T00:40:04;41.27;;;16.17;;
3573;SDS011;1801;51.050;6.246;2023-02-11T00:42:29;39.10;;;14.40;;
3573;SDS011;1801;51.050;6.246;2023-02-11T00:44:54;41.73;;;16.47;;
3573;SDS011;1801;51.050;6.246;2023-02-11T00:47:19;44.50;;;18.40;;
3573;SDS011;1801;51.050;6.246;2023-02-11T00:49:45;52.10;;;18.83;;
3573;SDS011;1801;51.050;6.246;2023-02-11T00:52:10;41.80;;;17.57;;
3573;SDS011;1801;51.050;6.246;2023-02-11T00:54:35;39.00;;;16.33;;
3573;SDS011;1801;51.050;6.246;2023-02-11T00:57:00;46.80;;;19.03;;
3573;SDS011;1801;51.050;6.246;2023-02-11T00:59:26;37.80;;;16.00;;
3573;SDS011;1801;51.050;6.246;2023-02-11T01:01:51;38.60;;;15.37;;
3573;SDS011;1801;51.050;6.246;2023-02-11T01:04:16;45.10;;;18.27;;
3573;SDS011;1801;51.050;6.246;2023-02-11T01:06:41;46.27;;;18.50;;
3573;SDS011;1801;51.050;6.246;2023-02-11T01:09:07;44.40;;;18.63;;
3573;SDS011;1801;51.050;6.246;2023-02-11T01:11:32;48.00;;;20.07;;
3573;SDS011;1801;51.050;6.246;2023-02-11T01:13:57;50.80;;;17.20;;
3573;SDS011;1801;51.050;6.246;2023-02-11T01:16:22;54.97;;;18.13;;
3573;SDS011;1801;51.050;6.246;2023-02-11T01:18:47;47.80;;;18.50;;
3573;SDS011;1801;51.050;6.246;2023-02-11T01:21:13;42.10;;;18.57;;
3573;SDS011;1801;51.050;6.246;2023-02-11T01:23:38;51.50;;;19.07;;
3573;SDS011;1801;51.050;6.246;2023-02-11T01:26:04;38.57;;;18.50;;
3573;SDS011;1801;51.050;6.246;2023-02-11T01:28:30;47.87;;;17.27;;
3573;SDS011;1801;51.050;6.246;2023-02-11T01:30:55;42.03;;;19.70;;
3573;SDS011;1801;51.050;6.246;2023-02-11T01:33:20;40.80;;;16.10;;
3573;SDS011;1801;51.050;6.246;2023-02-11T01:35:46;38.73;;;17.10;;
3573;SDS011;1801;51.050;6.246;2023-02-11T01:38:16;43.00;;;17.07;;
3573;SDS011;1801;51.050;6.246;2023-02-11T01:40:45;44.55;;;18.30;;
3573;SDS011;1801;51.050;6.246;2023-02-11T01:43:11;47.65;;;17.50;;
3573;SDS011;1801;51.050;6.246;2023-02-11T01:48:12;38.58;;;15.38;;
3573;SDS011;1801;51.050;6.246;2023-02-11T01:50:37;54.53;;;22.58;;
3573;SDS011;1801;51.050;6.246;2023-02-11T01:53:03;43.45;;;17.05;;
3573;SDS011;1801;51.050;6.246;2023-02-11T01:55:47;41.33;;;16.05;;
3573;SDS011;1801;51.050;6.246;2023-02-11T01:58:32;35.88;;;16.33;;
3573;SDS011;1801;51.050;6.246;2023-02-11T02:00:59;40.20;;;14.63;;
3573;SDS011;1801;51.050;6.246;2023-02-11T02:03:27;26.40;;;12.93;;
3573;SDS011;1801;51.050;6.246;2023-02-11T02:08:25;40.00;;;18.38;;
3573;SDS011;1801;51.050;6.246;2023-02-11T02:10:54;44.70;;;17.50;;
3573;SDS011;1801;51.050;6.246;2023-02-11T02:13:21;42.63;;;18.02;;
3573;SDS011;1801;51.050;6.246;2023-02-11T02:15:48;38.35;;;18.63;;
3573;SDS011;1801;51.050;6.246;2023-02-11T02:26:10;40.63;;;15.98;;
3573;SDS011;1801;51.050;6.246;2023-02-11T02:31:09;47.33;;;16.80;;
3573;SDS011;1801;51.050;6.246;2023-02-11T02:33:44;37.22;;;14.40;;
3573;SDS011;1801;51.050;6.246;2023-02-11T02:36:18;43.85;;;15.23;;
3573;SDS011;1801;51.050;6.246;2023-02-11T02:38:52;47.67;;;17.25;;
3573;SDS011;1801;51.050;6.246;2023-02-11T02:41:19;34.92;;;18.92;;
3573;SDS011;1801;51.050;6.246;2023-02-11T02:43:49;36.75;;;15.23;;
3573;SDS011;1801;51.050;6.246;2023-02-11T02:48:40;47.20;;;16.00;;
3573;SDS011;1801;51.050;6.246;2023-02-11T02:56:42;39.47;;;15.32;;
3573;SDS011;1801;51.050;6.246;2023-02-11T02:59:14;39.00;;;17.52;;
3573;SDS011;1801;51.050;6.246;2023-02-11T03:02:05;41.00;;;14.88;;
3573;SDS011;1801;51.050;6.246;2023-02-11T03:04:36;43.35;;;16.00;;
3573;SDS011;1801;51.050;6.246;2023-02-11T03:09:34;51.17;;;17.60;;
3573;SDS011;1801;51.050;6.246;2023-02-11T03:12:01;45.08;;;14.02;;
3573;SDS011;1801;51.050;6.246;2023-02-11T03:14:28;40.55;;;14.57;;
3573;SDS011;1801;51.050;6.246;2023-02-11T03:16:55;42.00;;;14.50;;
3573;SDS011;1801;51.050;6.246;2023-02-11T03:19:25;31.90;;;13.35;;
3573;SDS011;1801;51.050;6.246;2023-02-11T03:21:52;38.80;;;15.95;;
3573;SDS011;1801;51.050;6.246;2023-02-11T03:24:26;30.40;;;12.95;;
3573;SDS011;1801;51.050;6.246;2023-02-11T03:26:52;59.40;;;18.33;;
3573;SDS011;1801;51.050;6.246;2023-02-11T03:35:03;32.88;;;14.20;;
3573;SDS011;1801;51.050;6.246;2023-02-11T03:37:41;40.35;;;15.00;;
3573;SDS011;1801;51.050;6.246;2023-02-11T03:40:09;33.10;;;13.32;;
3573;SDS011;1801;51.050;6.246;2023-02-11T03:42:37;36.50;;;15.43;;
3573;SDS011;1801;51.050;6.246;2023-02-11T03:45:05;34.13;;;13.60;;
3573;SDS011;1801;51.050;6.246;2023-02-11T03:47:31;25.27;;;10.48;;
3573;SDS011;1801;51.050;6.246;2023-02-11T03:49:58;27.52;;;12.07;;
3573;SDS011;1801;51.050;6.246;2023-02-11T03:52:25;36.63;;;13.45;;
3573;SDS011;1801;51.050;6.246;2023-02-11T03:54:52;32.50;;;14.30;;
3573;SDS011;1801;51.050;6.246;2023-02-11T03:57:18;30.33;;;13.02;;
3573;SDS011;1801;51.050;6.246;2023-02-11T03:59:53;47.27;;;14.00;;
3573;SDS011;1801;51.050;6.246;2023-02-11T04:02:20;41.90;;;14.15;;
3573;SDS011;1801;51.050;6.246;2023-02-11T04:04:45;33.47;;;10.95;;
3573;SDS011;1801;51.050;6.246;2023-02-11T04:07:11;32.60;;;13.27;;
3573;SDS011;1801;51.050;6.246;2023-02-11T04:09:36;36.27;;;13.57;;
3573;SDS011;1801;51.050;6.246;2023-02-11T04:12:02;26.07;;;13.60;;
3573;SDS011;1801;51.050;6.246;2023-02-11T04:14:27;29.20;;;11.70;;
3573;SDS011;1801;51.050;6.246;2023-02-11T04:16:52;47.03;;;12.60;;
3573;SDS011;1801;51.050;6.246;2023-02-11T04:19:17;26.50;;;9.47;;
3573;SDS011;1801;51.050;6.246;2023-02-11T04:21:43;44.60;;;11.70;;
3573;SDS011;1801;51.050;6.246;2023-02-11T04:24:08;41.00;;;14.30;;
3573;SDS011;1801;51.050;6.246;2023-02-11T04:26:33;37.07;;;13.50;;
3573;SDS011;1801;51.050;6.246;2023-02-11T04:28:58;35.30;;;11.30;;
3573;SDS011;1801;51.050;6.246;2023-02-11T04:31:23;35.30;;;13.10;;
3573;SDS011;1801;51.050;6.246;2023-02-11T04:33:48;28.50;;;13.97;;
3573;SDS011;1801;51.050;6.246;2023-02-11T04:36:14;34.80;;;12.90;;
3573;SDS011;1801;51.050;6.246;2023-02-11T04:38:39;35.43;;;14.07;;
3573;SDS011;1801;51.050;6.246;2023-02-11T04:41:04;26.93;;;12.67;;
3573;SDS011;1801;51.050;6.246;2023-02-11T04:43:29;41.87;;;14.60;;
3573;SDS011;1801;51.050;6.246;2023-02-11T04:45:57;50.17;;;13.10;;
3573;SDS011;1801;51.050;6.246;2023-02-11T04:48:22;28.63;;;12.70;;
3573;SDS011;1801;51.050;6.246;2023-02-11T04:50:48;31.90;;;14.30;;
3573;SDS011;1801;51.050;6.246;2023-02-11T04:53:13;28.70;;;11.53;;
3573;SDS011;1801;51.050;6.246;2023-02-11T04:55:38;33.30;;;13.63;;
3573;SDS011;1801;51.050;6.246;2023-02-11T04:58:03;45.13;;;14.27;;
3573;SDS011;1801;51.050;6.246;2023-02-11T05:00:28;27.50;;;8.53;;
3573;SDS011;1801;51.050;6.246;2023-02-11T05:02:54;37.57;;;14.23;;
3573;SDS011;1801;51.050;6.246;2023-02-11T05:05:19;30.70;;;13.07;;
3573;SDS011;1801;51.050;6.246;2023-02-11T05:07:44;57.23;;;15.43;;
3573;SDS011;1801;51.050;6.246;2023-02-11T05:10:09;33.27;;;12.33;;
3573;SDS011;1801;51.050;6.246;2023-02-11T05:12:35;28.20;;;12.73;;
3573;SDS011;1801;51.050;6.246;2023-02-11T05:15:01;39.57;;;16.43;;
3573;SDS011;1801;51.050;6.246;2023-02-11T05:17:26;39.97;;;16.27;;
3573;SDS011;1801;51.050;6.246;2023-02-11T05:19:51;43.20;;;16.70;;
3573;SDS011;1801;51.050;6.246;2023-02-11T05:22:16;41.30;;;16.50;;
3573;SDS011;1801;51.050;6.246;2023-02-11T05:24:42;58.80;;;18.17;;
3573;SDS011;1801;51.050;6.246;2023-02-11T05:27:07;51.87;;;14.40;;
3573;SDS011;1801;51.050;6.246;2023-02-11T05:29:32;54.17;;;17.30;;
3573;SDS011;1801;51.050;6.246;2023-02-11T05:31:57;41.27;;;19.10;;
3573;SDS011;1801;51.050;6.246;2023-02-11T05:34:23;34.17;;;13.30;;
3573;SDS011;1801;51.050;6.246;2023-02-11T05:36:48;38.33;;;14.73;;
3573;SDS011;1801;51.050;6.246;2023-02-11T05:39:13;73.93;;;20.70;;
3573;SDS011;1801;51.050;6.246;2023-02-11T05:41:38;52.10;;;19.80;;
3573;SDS011;1801;51.050;6.246;2023-02-11T05:44:04;46.33;;;17.13;;
3573;SDS011;1801;51.050;6.246;2023-02-11T05:46:29;46.13;;;15.60;;
3573;SDS011;1801;51.050;6.246;2023-02-11T05:48:54;46.97;;;17.90;;
3573;SDS011;1801;51.050;6.246;2023-02-11T05:51:20;36.45;;;14.23;;
3573;SDS011;1801;51.050;6.246;2023-02-11T05:53:45;45.93;;;18.77;;
3573;SDS011;1801;51.050;6.246;2023-02-11T05:56:11;54.90;;;20.40;;
3573;SDS011;1801;51.050;6.246;2023-02-11T05:58:38;38.22;;;16.33;;
3573;SDS011;1801;51.050;6.246;2023-02-11T06:01:03;36.57;;;13.67;;
3573;SDS011;1801;51.050;6.246;2023-02-11T06:03:28;41.97;;;16.67;;
3573;SDS011;1801;51.050;6.246;2023-02-11T06:05:54;39.70;;;15.83;;
3573;SDS011;1801;51.050;6.246;2023-02-11T06:08:19;46.00;;;17.37;;
3573;SDS011;1801;51.050;6.246;2023-02-11T06:10:44;44.67;;;18.90;;
3573;SDS011;1801;51.050;6.246;2023-02-11T06:13:09;53.47;;;17.30;;
3573;SDS011;1801;51.050;6.246;2023-02-11T06:15:35;40.17;;;17.00;;
3573;SDS011;1801;51.050;6.246;2023-02-11T06:18:00;43.37;;;14.33;;
3573;SDS011;1801;51.050;6.246;2023-02-11T06:20:25;43.47;;;18.47;;
3573;SDS011;1801;51.050;6.246;2023-02-11T06:22:50;42.87;;;14.70;;
3573;SDS011;1801;51.050;6.246;2023-02-11T06:25:15;40.33;;;15.00;;
3573;SDS011;1801;51.050;6.246;2023-02-11T06:27:41;43.07;;;20.00;;
3573;SDS011;1801;51.050;6.246;2023-02-11T06:30:06;46.37;;;14.90;;
3573;SDS011;1801;51.050;6.246;2023-02-11T06:32:32;45.07;;;14.70;;
3573;SDS011;1801;51.050;6.246;2023-02-11T06:35:00;41.33;;;15.85;;
3573;SDS011;1801;51.050;6.246;2023-02-11T06:37:25;43.30;;;16.87;;
3573;SDS011;1801;51.050;6.246;2023-02-11T06:39:50;43.80;;;16.97;;
3573;SDS011;1801;51.050;6.246;2023-02-11T06:42:15;49.80;;;17.83;;
3573;SDS011;1801;51.050;6.246;2023-02-11T06:44:41;45.70;;;18.03;;
3573;SDS011;1801;51.050;6.246;2023-02-11T06:47:06;46.30;;;15.83;;
3573;SDS011;1801;51.050;6.246;2023-02-11T06:49:31;50.27;;;18.13;;
3573;SDS011;1801;51.050;6.246;2023-02-11T06:51:56;40.17;;;18.00;;
3573;SDS011;1801;51.050;6.246;2023-02-11T06:54:22;44.60;;;16.83;;
3573;SDS011;1801;51.050;6.246;2023-02-11T06:56:47;69.10;;;19.20;;
3573;SDS011;1801;51.050;6.246;2023-02-11T06:59:16;58.93;;;21.10;;
3573;SDS011;1801;51.050;6.246;2023-02-11T07:01:42;41.15;;;15.70;;
3573;SDS011;1801;51.050;6.246;2023-02-11T07:04:07;46.07;;;18.10;;
3573;SDS011;1801;51.050;6.246;2023-02-11T07:06:32;45.13;;;16.83;;
3573;SDS011;1801;51.050;6.246;2023-02-11T07:08:57;69.43;;;19.20;;
3573;SDS011;1801;51.050;6.246;2023-02-11T07:11:24;54.87;;;18.60;;
3573;SDS011;1801;51.050;6.246;2023-02-11T07:13:50;42.20;;;18.92;;
3573;SDS011;1801;51.050;6.246;2023-02-11T07:16:16;50.27;;;14.67;;
3573;SDS011;1801;51.050;6.246;2023-02-11T07:18:41;49.73;;;16.43;;
3573;SDS011;1801;51.050;6.246;2023-02-11T07:21:07;47.80;;;16.83;;
3573;SDS011;1801;51.050;6.246;2023-02-11T07:23:33;52.75;;;18.58;;
3573;SDS011;1801;51.050;6.246;2023-02-11T07:26:12;55.67;;;19.80;;
3573;SDS011;1801;51.050;6.246;2023-02-11T07:28:37;50.50;;;19.35;;
3573;SDS011;1801;51.050;6.246;2023-02-11T07:31:13;45.23;;;16.00;;
3573;SDS011;1801;51.050;6.246;2023-02-11T07:33:39;39.17;;;14.90;;
3573;SDS011;1801;51.050;6.246;2023-02-11T07:36:05;42.70;;;17.50;;
3573;SDS011;1801;51.050;6.246;2023-02-11T07:38:31;51.70;;;18.00;;
3573;SDS011;1801;51.050;6.246;2023-02-11T07:40:59;51.30;;;19.00;;
3573;SDS011;1801;51.050;6.246;2023-02-11T07:43:25;47.38;;;18.00;;
3573;SDS011;1801;51.050;6.246;2023-02-11T07:45:50;54.27;;;18.40;;
3573;SDS011;1801;51.050;6.246;2023-02-11T07:48:15;51.57;;;19.87;;
3573;SDS011;1801;51.050;6.246;2023-02-11T07:50:40;56.80;;;18.73;;
3573;SDS011;1801;51.050;6.246;2023-02-11T07:53:06;53.60;;;18.27;;
3573;SDS011;1801;51.050;6.246;2023-02-11T07:55:32;47.77;;;17.60;;
3573;SDS011;1801;51.050;6.246;2023-02-11T07:57:57;70.28;;;21.17;;
3573;SDS011;1801;51.050;6.246;2023-02-11T08:00:22;68.00;;;20.50;;
3573;SDS011;1801;51.050;6.246;2023-02-11T08:02:47;60.10;;;21.07;;
3573;SDS011;1801;51.050;6.246;2023-02-11T08:05:13;49.83;;;17.70;;
3573;SDS011;1801;51.050;6.246;2023-02-11T08:07:38;58.67;;;19.90;;
3573;SDS011;1801;51.050;6.246;2023-02-11T08:10:03;57.27;;;21.27;;
3573;SDS011;1801;51.050;6.246;2023-02-11T08:12:29;56.43;;;19.17;;
3573;SDS011;1801;51.050;6.246;2023-02-11T08:14:54;71.10;;;20.60;;
3573;SDS011;1801;51.050;6.246;2023-02-11T08:17:20;58.67;;;20.65;;
3573;SDS011;1801;51.050;6.246;2023-02-11T08:19:45;50.20;;;19.23;;
3573;SDS011;1801;51.050;6.246;2023-02-11T08:22:13;53.35;;;20.58;;
3573;SDS011;1801;51.050;6.246;2023-02-11T08:24:38;64.67;;;21.03;;
3573;SDS011;1801;51.050;6.246;2023-02-11T08:27:04;69.87;;;22.97;;
3573;SDS011;1801;51.050;6.246;2023-02-11T08:29:29;83.10;;;23.50;;
3573;SDS011;1801;51.050;6.246;2023-02-11T08:31:54;65.97;;;21.10;;
3573;SDS011;1801;51.050;6.246;2023-02-11T08:34:19;70.30;;;22.47;;
3573;SDS011;1801;51.050;6.246;2023-02-11T08:36:46;66.20;;;21.17;;
3573;SDS011;1801;51.050;6.246;2023-02-11T08:39:13;68.13;;;22.50;;
3573;SDS011;1801;51.050;6.246;2023-02-11T08:41:38;76.88;;;25.25;;
3573;SDS011;1801;51.050;6.246;2023-02-11T08:44:03;63.53;;;20.07;;
3573;SDS011;1801;51.050;6.246;2023-02-11T08:46:29;60.57;;;21.90;;
3573;SDS011;1801;51.050;6.246;2023-02-11T08:48:54;60.60;;;21.27;;
3573;SDS011;1801;51.050;6.246;2023-02-11T08:51:21;64.83;;;21.47;;
3573;SDS011;1801;51.050;6.246;2023-02-11T08:53:47;72.82;;;20.95;;
3573;SDS011;1801;51.050;6.246;2023-02-11T08:56:12;54.37;;;20.70;;
3573;SDS011;1801;51.050;6.246;2023-02-11T08:58:38;55.20;;;22.33;;
3573;SDS011;1801;51.050;6.246;2023-02-11T09:01:09;59.93;;;20.50;;
3573;SDS011;1801;51.050;6.246;2023-02-11T09:03:35;64.85;;;22.52;;
3573;SDS011;1801;51.050;6.246;2023-02-11T09:06:03;55.53;;;19.90;;
3573;SDS011;1801;51.050;6.246;2023-02-11T09:08:28;48.55;;;20.02;;
3573;SDS011;1801;51.050;6.246;2023-02-11T09:10:55;51.43;;;18.40;;
3573;SDS011;1801;51.050;6.246;2023-02-11T09:13:20;51.85;;;20.02;;
3573;SDS011;1801;51.050;6.246;2023-02-11T09:15:45;45.97;;;15.97;;
3573;SDS011;1801;51.050;6.246;2023-02-11T09:18:10;72.10;;;18.60;;
3573;SDS011;1801;51.050;6.246;2023-02-11T09:20:36;38.27;;;15.43;;
3573;SDS011;1801;51.050;6.246;2023-02-11T09:23:01;50.33;;;15.60;;
3573;SDS011;1801;51.050;6.246;2023-02-11T09:25:26;54.50;;;18.37;;
3573;SDS011;1801;51.050;6.246;2023-02-11T09:27:51;69.37;;;20.33;;
3573;SDS011;1801;51.050;6.246;2023-02-11T09:30:17;58.70;;;20.30;;
3573;SDS011;1801;51.050;6.246;2023-02-11T09:32:43;58.03;;;20.40;;
3573;SDS011;1801;51.050;6.246;2023-02-11T09:35:08;53.43;;;18.30;;
3573;SDS011;1801;51.050;6.246;2023-02-11T09:37:33;66.40;;;20.70;;
3573;SDS011;1801;51.050;6.246;2023-02-11T09:39:58;65.23;;;21.13;;
3573;SDS011;1801;51.050;6.246;2023-02-11T09:45:11;69.78;;;20.98;;
3573;SDS011;1801;51.050;6.246;2023-02-11T09:47:39;76.97;;;21.98;;
3573;SDS011;1801;51.050;6.246;2023-02-11T09:50:12;79.07;;;21.52;;
3573;SDS011;1801;51.050;6.246;2023-02-11T09:52:43;73.57;;;20.90;;
3573;SDS011;1801;51.050;6.246;2023-02-11T09:55:27;67.60;;;21.52;;
3573;SDS011;1801;51.050;6.246;2023-02-11T09:57:53;64.40;;;23.77;;
3573;SDS011;1801;51.050;6.246;2023-02-11T10:00:20;72.57;;;24.80;;
3573;SDS011;1801;51.050;6.246;2023-02-11T10:10:56;65.55;;;22.30;;
3573;SDS011;1801;51.050;6.246;2023-02-11T10:13:32;75.25;;;23.05;;
3573;SDS011;1801;51.050;6.246;2023-02-11T10:16:08;62.42;;;22.67;;
3573;SDS011;1801;51.050;6.246;2023-02-11T10:21:46;58.53;;;22.15;;
3573;SDS011;1801;51.050;6.246;2023-02-11T10:24:02;88.00;;;24.60;;
3573;SDS011;1801;51.050;6.246;2023-02-11T10:26:29;58.10;;;20.88;;
3573;SDS011;1801;51.050;6.246;2023-02-11T10:28:55;71.45;;;23.95;;
3573;SDS011;1801;51.050;6.246;2023-02-11T10:31:33;64.75;;;21.40;;
3573;SDS011;1801;51.050;6.246;2023-02-11T10:34:09;73.20;;;22.25;;
3573;SDS011;1801;51.050;6.246;2023-02-11T10:36:36;74.55;;;25.55;;
3573;SDS011;1801;51.050;6.246;2023-02-11T10:39:17;78.03;;;25.70;;
3573;SDS011;1801;51.050;6.246;2023-02-11T10:41:44;81.78;;;24.00;;
3573;SDS011;1801;51.050;6.246;2023-02-11T10:44:15;54.15;;;19.35;;
3573;SDS011;1801;51.050;6.246;2023-02-11T10:46:42;70.05;;;23.77;;
3573;SDS011;1801;51.050;6.246;2023-02-11T10:49:08;64.97;;;22.63;;
3573;SDS011;1801;51.050;6.246;2023-02-11T10:51:33;69.33;;;23.63;;
3573;SDS011;1801;51.050;6.246;2023-02-11T10:56:33;70.05;;;22.35;;
3573;SDS011;1801;51.050;6.246;2023-02-11T10:59:00;74.72;;;24.00;;
3573;SDS011;1801;51.050;6.246;2023-02-11T11:01:39;69.95;;;24.98;;
3573;SDS011;1801;51.050;6.246;2023-02-11T11:04:05;74.05;;;21.58;;
3573;SDS011;1801;51.050;6.246;2023-02-11T11:06:31;80.93;;;23.70;;
3573;SDS011;1801;51.050;6.246;2023-02-11T11:08:57;68.32;;;23.65;;
3573;SDS011;1801;51.050;6.246;2023-02-11T11:11:23;74.90;;;26.23;;
3573;SDS011;1801;51.050;6.246;2023-02-11T11:16:20;94.20;;;26.95;;
3573;SDS011;1801;51.050;6.246;2023-02-11T11:18:47;71.55;;;23.20;;
3573;SDS011;1801;51.050;6.246;2023-02-11T11:21:23;68.88;;;22.55;;
3573;SDS011;1801;51.050;6.246;2023-02-11T11:23:53;76.50;;;26.98;;
3573;SDS011;1801;51.050;6.246;2023-02-11T11:26:18;75.50;;;21.70;;
3573;SDS011;1801;51.050;6.246;2023-02-11T11:28:51;69.73;;;21.97;;
3573;SDS011;1801;51.050;6.246;2023-02-11T11:31:25;73.40;;;22.60;;
3573;SDS011;1801;51.050;6.246;2023-02-11T11:33:51;92.22;;;25.73;;
3573;SDS011;1801;51.050;6.246;2023-02-11T11:36:19;87.88;;;27.58;;
3573;SDS011;1801;51.050;6.246;2023-02-11T11:38:48;76.35;;;26.38;;
3573;SDS011;1801;51.050;6.246;2023-02-11T11:46:24;93.72;;;29.38;;
3573;SDS011;1801;51.050;6.246;2023-02-11T11:48:50;75.78;;;26.17;;
3573;SDS011;1801;51.050;6.246;2023-02-11T11:51:16;89.95;;;29.00;;
3573;SDS011;1801;51.050;6.246;2023-02-11T11:53:45;96.93;;;29.50;;
3573;SDS011;1801;51.050;6.246;2023-02-11T11:56:15;84.18;;;23.63;;
3573;SDS011;1801;51.050;6.246;2023-02-11T11:58:42;76.85;;;25.40;;
3573;SDS011;1801;51.050;6.246;2023-02-11T12:04:01;80.38;;;25.90;;
3573;SDS011;1801;51.050;6.246;2023-02-11T12:08:57;79.63;;;25.42;;
3573;SDS011;1801;51.050;6.246;2023-02-11T12:13:59;71.60;;;23.10;;
3573;SDS011;1801;51.050;6.246;2023-02-11T12:16:32;81.32;;;25.42;;
3573;SDS011;1801;51.050;6.246;2023-02-11T12:24:23;84.10;;;25.33;;
3573;SDS011;1801;51.050;6.246;2023-02-11T12:29:43;95.68;;;27.02;;
3573;SDS011;1801;51.050;6.246;2023-02-11T12:39:39;89.05;;;29.60;;
3573;SDS011;1801;51.050;6.246;2023-02-11T12:55:16;84.10;;;27.77;;
3573;SDS011;1801;51.050;6.246;2023-02-11T12:57:43;93.22;;;27.52;;
3573;SDS011;1801;51.050;6.246;2023-02-11T13:00:23;99.38;;;27.75;;
3573;SDS011;1801;51.050;6.246;2023-02-11T13:07:46;92.30;;;27.75;;
3573;SDS011;1801;51.050;6.246;2023-02-11T13:12:37;70.63;;;25.70;;
3573;SDS011;1801;51.050;6.246;2023-02-11T13:15:29;98.57;;;28.20;;
3573;SDS011;1801;51.050;6.246;2023-02-11T13:18:12;88.23;;;27.43;;
3573;SDS011;1801;51.050;6.246;2023-02-11T13:23:17;93.55;;;28.20;;
3573;SDS011;1801;51.050;6.246;2023-02-11T13:25:46;100.78;;;29.67;;
3573;SDS011;1801;51.050;6.246;2023-02-11T13:28:21;93.07;;;29.00;;
3573;SDS011;1801;51.050;6.246;2023-02-11T13:30:49;84.15;;;29.60;;
3573;SDS011;1801;51.050;6.246;2023-02-11T13:33:37;107.03;;;31.50;;
3573;SDS011;1801;51.050;6.246;2023-02-11T13:38:32;107.30;;;29.60;;
3573;SDS011;1801;51.050;6.246;2023-02-11T13:41:21;100.67;;;31.50;;
3573;SDS011;1801;51.050;6.246;2023-02-11T13:43:46;103.93;;;30.95;;
3573;SDS011;1801;51.050;6.246;2023-02-11T13:46:20;103.15;;;32.03;;
3573;SDS011;1801;51.050;6.246;2023-02-11T13:48:50;103.50;;;32.20;;
3573;SDS011;1801;51.050;6.246;2023-02-11T13:51:17;96.82;;;29.10;;
3573;SDS011;1801;51.050;6.246;2023-02-11T13:53:43;96.53;;;29.67;;
3573;SDS011;1801;51.050;6.246;2023-02-11T13:56:11;106.43;;;31.92;;
3573;SDS011;1801;51.050;6.246;2023-02-11T13:58:45;96.45;;;31.45;;
3573;SDS011;1801;51.050;6.246;2023-02-11T14:01:11;98.30;;;31.17;;
3573;SDS011;1801;51.050;6.246;2023-02-11T14:04:18;96.00;;;29.20;;
3573;SDS011;1801;51.050;6.246;2023-02-11T14:10:05;82.40;;;27.00;;
3573;SDS011;1801;51.050;6.246;2023-02-11T14:13:03;88.88;;;27.60;;
3573;SDS011;1801;51.050;6.246;2023-02-11T14:15:35;100.00;;;27.58;;
3573;SDS011;1801;51.050;6.246;2023-02-11T14:18:02;102.32;;;30.00;;
3573;SDS011;1801;51.050;6.246;2023-02-11T14:20:47;88.82;;;28.00;;
3573;SDS011;1801;51.050;6.246;2023-02-11T14:23:19;106.03;;;31.33;;
3573;SDS011;1801;51.050;6.246;2023-02-11T14:25:49;109.43;;;31.58;;
3573;SDS011;1801;51.050;6.246;2023-02-11T14:28:25;103.50;;;33.22;;
3573;SDS011;1801;51.050;6.246;2023-02-11T14:43:27;97.38;;;32.40;;
3573;SDS011;1801;51.050;6.246;2023-02-11T14:45:55;105.45;;;30.38;;
3573;SDS011;1801;51.050;6.246;2023-02-11T14:48:25;99.95;;;27.40;;
3573;SDS011;1801;51.050;6.246;2023-02-11T14:50:59;100.93;;;32.47;;
3573;SDS011;1801;51.050;6.246;2023-02-11T14:53:25;91.18;;;29.67;;
3573;SDS011;1801;51.050;6.246;2023-02-11T14:55:53;91.93;;;30.27;;
3573;SDS011;1801;51.050;6.246;2023-02-11T14:58:22;102.93;;;29.70;;
3573;SDS011;1801;51.050;6.246;2023-02-11T15:06:27;107.55;;;28.15;;
3573;SDS011;1801;51.050;6.246;2023-02-11T15:09:04;94.05;;;27.55;;
3573;SDS011;1801;51.050;6.246;2023-02-11T15:11:31;99.75;;;27.67;;
3573;SDS011;1801;51.050;6.246;2023-02-11T15:14:00;92.40;;;26.15;;
3573;SDS011;1801;51.050;6.246;2023-02-11T15:16:30;130.75;;;40.10;;
3573;SDS011;1801;51.050;6.246;2023-02-11T15:18:58;102.78;;;33.05;;
3573;SDS011;1801;51.050;6.246;2023-02-11T15:21:25;81.80;;;28.00;;
3573;SDS011;1801;51.050;6.246;2023-02-11T15:23:59;91.65;;;26.88;;
3573;SDS011;1801;51.050;6.246;2023-02-11T15:26:24;102.32;;;29.70;;
3573;SDS011;1801;51.050;6.246;2023-02-11T15:28:49;93.63;;;28.83;;
3573;SDS011;1801;51.050;6.246;2023-02-11T15:31:19;92.60;;;28.52;;
3573;SDS011;1801;51.050;6.246;2023-02-11T15:33:44;90.40;;;31.05;;
3573;SDS011;1801;51.050;6.246;2023-02-11T15:36:10;81.10;;;28.30;;
3573;SDS011;1801;51.050;6.246;2023-02-11T15:38:35;91.97;;;30.33;;
3573;SDS011;1801;51.050;6.246;2023-02-11T15:41:01;86.97;;;30.17;;
3573;SDS011;1801;51.050;6.246;2023-02-11T15:43:46;110.60;;;31.80;;
3573;SDS011;1801;51.050;6.246;2023-02-11T15:46:15;88.93;;;28.35;;
3573;SDS011;1801;51.050;6.246;2023-02-11T15:48:51;80.93;;;27.38;;
3573;SDS011;1801;51.050;6.246;2023-02-11T15:51:27;88.45;;;27.73;;
3573;SDS011;1801;51.050;6.246;2023-02-11T15:53:57;111.45;;;32.28;;
3573;SDS011;1801;51.050;6.246;2023-02-11T15:56:24;100.97;;;31.63;;
3573;SDS011;1801;51.050;6.246;2023-02-11T15:58:51;98.93;;;30.05;;
3573;SDS011;1801;51.050;6.246;2023-02-11T16:01:17;85.38;;;28.98;;
3573;SDS011;1801;51.050;6.246;2023-02-11T16:03:42;113.17;;;30.50;;
3573;SDS011;1801;51.050;6.246;2023-02-11T16:06:23;98.47;;;30.38;;
3573;SDS011;1801;51.050;6.246;2023-02-11T16:09:23;91.35;;;30.38;;
3573;SDS011;1801;51.050;6.246;2023-02-11T16:17:21;97.88;;;28.73;;
3573;SDS011;1801;51.050;6.246;2023-02-11T16:19:42;82.80;;;26.77;;
3573;SDS011;1801;51.050;6.246;2023-02-11T16:22:09;90.30;;;29.83;;
3573;SDS011;1801;51.050;6.246;2023-02-11T16:24:35;83.65;;;29.60;;
3573;SDS011;1801;51.050;6.246;2023-02-11T16:27:17;93.45;;;27.52;;
3573;SDS011;1801;51.050;6.246;2023-02-11T16:29:44;98.57;;;31.35;;
3573;SDS011;1801;51.050;6.246;2023-02-11T16:34:39;82.43;;;27.48;;
3573;SDS011;1801;51.050;6.246;2023-02-11T16:37:04;105.93;;;31.10;;
3573;SDS011;1801;51.050;6.246;2023-02-11T16:39:30;77.93;;;29.63;;
3573;SDS011;1801;51.050;6.246;2023-02-11T16:41:55;113.50;;;33.13;;
3573;SDS011;1801;51.050;6.246;2023-02-11T16:44:21;91.35;;;32.95;;
3573;SDS011;1801;51.050;6.246;2023-02-11T16:46:46;95.63;;;30.97;;
3573;SDS011;1801;51.050;6.246;2023-02-11T16:49:16;85.87;;;29.10;;
3573;SDS011;1801;51.050;6.246;2023-02-11T16:51:41;101.05;;;30.77;;
3573;SDS011;1801;51.050;6.246;2023-02-11T16:54:10;88.60;;;30.23;;
3573;SDS011;1801;51.050;6.246;2023-02-11T16:56:37;90.30;;;31.48;;
3573;SDS011;1801;51.050;6.246;2023-02-11T16:59:02;93.37;;;32.43;;
3573;SDS011;1801;51.050;6.246;2023-02-11T17:01:27;90.33;;;28.60;;
3573;SDS011;1801;51.050;6.246;2023-02-11T17:03:52;96.37;;;29.07;;